Monday, July 23, 2018, 11:29 AM EDT
Back to Local

KHWV, Shirley Brookhaven Airport

Location: Shirley, NY, United States Lat: 40.817
Local Time: 11:29 AM EDT (15:29 GMT) Lon: -72.867
Time Zone: US/Eastern Elev: 82 ft

Show me the last for .
Show Decoded

2018-07-23 11:04 METAR KHWV 231504Z AUTO 15014G18KT 9SM -RA OVC008 26/25 A3016 RMK AO2 CIG
                 007V011 P0000 T02610250 =
2018-07-23 10:56 METAR KHWV 231456Z AUTO 16013G23KT 8SM -RA OVC010 26/24 A3016 RMK AO2 RAB51 CIG
                 008V013 SLP213 P0000 60015 T02560244 51015 =
2018-07-23 10:35 METAR KHWV 231435Z AUTO 15017G23KT 10SM BKN012 OVC019 26/24 A3016 RMK AO2
                 T02610244 =
2018-07-23 10:09 METAR KHWV 231409Z AUTO 16014G23KT 10SM SCT020 BKN026 OVC035 26/24 A3015 RMK AO2
                 T02610239 =
2018-07-23 09:56 METAR KHWV 231356Z AUTO 17017G24KT 10SM FEW008 BKN032 BKN039 26/24 A3015 RMK AO2
                 RAE35 SLP208 P0000 T02610244 =
2018-07-23 09:44 METAR KHWV 231344Z AUTO 16014G22KT 10SM SCT007 BKN037 BKN045 26/25 A3015 RMK AO2
                 RAE35 P0000 T02560250 =
2018-07-23 09:10 METAR KHWV 231310Z AUTO 15014KT 7SM -RA BKN009 BKN016 OVC085 24/24 A3014 RMK AO2
                 P0000 T02440244 =
2018-07-23 08:56 METAR KHWV 231256Z AUTO 16016G28KT 4SM RA BR BKN011 BKN026 24/24 A3013 RMK AO2
                 PK WND 15028/1249 RAB25 SLP203 P0015 T02440239 =
2018-07-23 08:36 METAR KHWV 231236Z AUTO 14013G20KT 3SM -RA BR BKN007 OVC017 24/24 A3013 RMK AO2
                 RAB25 P0012 T02440244 =
2018-07-23 08:26 METAR KHWV 231226Z AUTO 14013G22KT 1 1/2SM +RA BR BKN007 BKN012 OVC017 24/24
                 A3013 RMK AO2 RAB25 P0011 T02440239 =
2018-07-23 07:56 METAR KHWV 231156Z AUTO 13008G17KT 8SM BKN009 BKN012 OVC020 24/24 A3012 RMK AO2
                 RAE13 SLP198 P0000 60000 70017 T02440239 10244 20233 50003 =
2018-07-23 07:51 METAR KHWV 231151Z AUTO 14009G15KT 8SM BKN009 BKN012 OVC020 24/24 A3012 RMK AO2
                 RAE13 P0000 =
2018-07-23 06:56 METAR KHWV 231056Z AUTO 15011KT 8SM -RA OVC012 24/24 A3011 RMK AO2 RAB41 SLP195
                 P0000 T02390239 =
2018-07-23 06:51 METAR KHWV 231051Z AUTO 14011G17KT 7SM -RA OVC012 24/24 A3011 RMK AO2 RAB41
                 P0000 =
2018-07-23 05:56 METAR KHWV 230956Z AUTO 13007KT 6SM BR SCT007 BKN021 OVC055 24/24 A3009 RMK AO2
                 SLP189 T02390239 =
2018-07-23 04:56 METAR KHWV 230856Z AUTO 14009G18KT 8SM BKN007 OVC050 23/23 A3008 RMK AO2 SLP186
                 T02330233 53000 =
2018-07-23 03:56 METAR KHWV 230756Z AUTO 13009KT 7SM OVC006 23/23 A3007 RMK AO2 SLP183 T02330233
                 =
2018-07-23 02:56 METAR KHWV 230656Z AUTO 13008KT 7SM BKN007 OVC020 24/24 A3007 RMK AO2 SLP182
                 T02390239 =
2018-07-23 02:18 METAR KHWV 230618Z AUTO 14007KT 7SM BKN006 BKN018 OVC120 24/24 A3008 RMK AO2
                 T02390239 =
2018-07-23 01:56 METAR KHWV 230556Z AUTO 13007KT 7SM SCT006 BKN017 OVC110 24/24 A3008 RMK AO2
                 SLP185 60005 T02390239 10250 20228 50003 =
2018-07-23 01:47 METAR KHWV 230547Z AUTO 14007KT 7SM SCT006 BKN019 OVC110 24/24 A3008 RMK AO2
                 T02390239 =
2018-07-23 01:37 METAR KHWV 230537Z AUTO 13011G16KT 7SM BKN006 BKN019 OVC110 24/24 A3008 RMK AO2
                 T02390239 =
2018-07-23 01:25 METAR KHWV 230525Z AUTO 14010G16KT 7SM SCT006 BKN065 OVC120 24/24 A3008 RMK AO2
                 T02390239 =
2018-07-23 00:56 METAR KHWV 230456Z AUTO 14009KT 7SM BKN006 OVC100 24/24 A3009 RMK AO2 CIG
                 004V008 SLP187 T02390239 402720211 =
2018-07-23 00:29 METAR KHWV 230429Z AUTO 14009G17KT 7SM BKN007 OVC016 24/24 A3008 RMK AO2
                 T02390239 =
2018-07-23 00:01 METAR KHWV 230401Z AUTO 14009KT 9SM FEW008 BKN016 OVC075 23/23 A3008 RMK AO2
                 T02330233 =
2018-07-22 23:56 METAR KHWV 230356Z AUTO 14007KT 9SM SCT015 BKN070 OVC095 23/23 A3008 RMK AO2
                 SLP185 T02330233 =
2018-07-22 23:27 METAR KHWV 230327Z AUTO 14010G15KT 9SM SCT017 OVC065 23/23 A3008 RMK AO2
                 T02330233 =
2018-07-22 22:56 METAR KHWV 230256Z AUTO 14008KT 10SM BKN017 OVC055 23/23 A3007 RMK AO2 RAB08E25
                 SLP182 P0003 60005 T02330233 51010 =
2018-07-22 22:17 METAR KHWV 230217Z AUTO 15011KT 4SM -RA BR FEW009 BKN027 OVC037 23/23 A3006 RMK
                 AO2 RAB08 P0003 T02330233 =
2018-07-22 21:56 METAR KHWV 230156Z AUTO 14009KT 9SM FEW021 BKN031 OVC060 23/23 A3006 RMK AO2
                 RAB17E26 SLP179 P0000 T02330233 =
2018-07-22 21:20 METAR KHWV 230120Z AUTO 14008KT 8SM -RA FEW005 OVC019 23/23 A3006 RMK AO2 RAB17
                 P0000 T02330233 =
2018-07-22 20:56 METAR KHWV 230056Z AUTO 13009KT 8SM OVC005 23/23 A3006 RMK AO2 RAB2357E34 SLP176
                 P0002 T02330233 =
2018-07-22 19:56 METAR KHWV 222356Z AUTO 13010G15KT 090V150 6SM BR BKN006 OVC015 23/23 A3004 RMK
                 AO2 RAB07E54 CIG 004V009 SLP172 P0001 60012 T02330233 10267 20228 53004 =
2018-07-22 18:56 METAR KHWV 222256Z AUTO 13006KT 7SM OVC005 23/23 A3003 RMK AO2 RAE38 SLP169
                 P0004 T02330233 =
2018-07-22 18:11 METAR KHWV 222211Z AUTO 14009G16KT 4SM -RA BR BKN007 OVC013 23/23 A3003 RMK AO2
                 P0003 T02280228 =
2018-07-22 18:04 METAR KHWV 222204Z AUTO 14007G15KT 5SM RA BR SCT007 OVC013 23/23 A3003 RMK AO2
                 P0002 T02280228 =
2018-07-22 17:56 METAR KHWV 222156Z AUTO 15009KT 5SM -RA BR BKN010 BKN021 OVC075 23/23 A3003 RMK
                 AO2 RAB21 SLP169 P0007 T02280228 =
2018-07-22 17:44 METAR KHWV 222144Z AUTO 14009G16KT 2 1/2SM RA BR BKN012 BKN023 OVC040 23/23
                 A3003 RMK AO2 VIS 1 1/4V4 RAB21 P0005 T02280228 =
2018-07-22 17:05 METAR KHWV 222105Z AUTO 13011G18KT 10SM FEW019 BKN025 OVC055 24/22 A3003 RMK AO2
                 T02440222 =
2018-07-22 16:56 METAR KHWV 222056Z AUTO 14010G21KT 10SM SCT027 OVC050 25/22 A3003 RMK AO2 SLP168
                 T02500222 53005 =
2018-07-22 15:56 METAR KHWV 221956Z AUTO 15014G19KT 10SM FEW015 SCT041 26/22 A3001 RMK AO2 SLP161
                 T02610222 =
2018-07-22 15:16 METAR KHWV 221916Z AUTO 14014G23KT 10SM SCT032 26/23 A3001 RMK AO2 T02610228 =
2018-07-22 15:03 METAR KHWV 221903Z AUTO 16014G23KT 10SM FEW012 BKN028 OVC038 26/23 A3001 RMK AO2
                 T02610228 =
2018-07-22 14:56 METAR KHWV 221856Z AUTO 16015G20KT 10SM FEW012 OVC030 26/23 A3001 RMK AO2 SLP162
                 T02560228 =
2018-07-22 14:31 METAR KHWV 221831Z AUTO 14013G23KT 10SM FEW011 BKN023 26/23 A3001 RMK AO2
                 T02610228 =
2018-07-22 14:23 METAR KHWV 221823Z AUTO 15017G23KT 10SM SCT011 SCT021 27/23 A3001 RMK AO2
                 T02670233 =
2018-07-22 13:56 METAR KHWV 221756Z AUTO 15022G30KT 10SM BKN011 OVC032 26/23 A3001 RMK AO2 PK WND
                 15030/1756 SLP163 T02560233 10272 20233 51004 =
2018-07-22 13:51 METAR KHWV 221751Z AUTO 15018G26KT 10SM BKN011 OVC032 26/23 A3002 RMK AO2 PK WND
                 14027/1738 =
2018-07-22 13:42 METAR KHWV 221742Z AUTO 15015G27KT 10SM SCT012 OVC030 25/23 A3001 RMK AO2 PK WND
                 14027/1738 T02500228 =
2018-07-22 13:31 METAR KHWV 221731Z AUTO 15015G25KT 10SM BKN029 26/23 A3002 RMK AO2 T02560228 =
2018-07-22 13:06 METAR KHWV 221706Z AUTO 14014G25KT 10SM SCT027 BKN042 27/23 A3001 RMK AO2
                 T02720233 =
2018-07-22 12:56 METAR KHWV 221656Z AUTO 14014G22KT 10SM FEW010 BKN028 OVC041 27/23 A3001 RMK AO2
                 PK WND 15027/1614 SLP161 T02670228 =
2018-07-22 12:09 METAR KHWV 221609Z AUTO 15017G25KT 10SM SCT010 BKN019 OVC035 26/23 A3000 RMK AO2
                 PK WND 17026/1559 T02610233 =
2018-07-22 11:56 METAR KHWV 221556Z AUTO 15014G23KT 10SM BKN009 BKN019 OVC031 26/24 A3000 RMK AO2
                 CIG 007V012 SLP159 T02610239 =

Support USWX by starting your Amazon purchase here.